RJOS(METAR)
07/27 16:00
METAR RJOS 270700Z 01010KT 340V050 9999 FEW030 BKN/// 35/20 Q0999 RMK
2CU030 A2950=
戻る
トップページへ戻る
IMOC Co,.Ltd.